Time;durP1;ratioP1;P1;durP2;ratioP2;P2;SDS_P1;SDS_P2;PMS_P1;PMS_P2;Temp;Humidity;BMP_temperature;BMP_pressure;BME280_temperature;BME280_humidity;BME280_pressure;Samples;Min_cycle;Max_cycle;Signal;HPM_P1;HPM_P2
2023/03/06 00:01:56;;;;;;;6.00;2.65;;;2.10;99.90;;;;;;5041002;28;20033;-72
2023/03/06 00:04:22;;;;;;;7.55;2.10;;;2.10;99.90;;;;;;5043480;28;20018;-71
2023/03/06 00:06:47;;;;;;;7.85;2.72;;;2.10;99.90;;;;;;5041431;28;20052;-70
2023/03/06 00:09:13;;;;;;;6.40;2.83;;;2.10;99.90;;;;;;5042075;28;20052;-72
2023/03/06 00:11:38;;;;;;;4.53;2.20;;;2.10;99.90;;;;;;5042696;28;20108;-71
2023/03/06 00:14:04;;;;;;;5.07;2.17;;;2.10;99.90;;;;;;5040913;28;20033;-73
2023/03/06 00:16:30;;;;;;;5.03;2.25;;;2.10;99.90;;;;;;5041333;28;20025;-71
2023/03/06 00:18:55;;;;;;;4.88;2.53;;;2.20;99.90;;;;;;5042797;28;20081;-69
2023/03/06 00:21:21;;;;;;;4.80;2.45;;;2.20;99.90;;;;;;5042676;28;20037;-72
2023/03/06 00:23:46;;;;;;;4.63;2.15;;;2.10;99.90;;;;;;5042455;28;20026;-71
2023/03/06 00:26:12;;;;;;;4.45;2.10;;;2.20;99.90;;;;;;5042615;28;20067;-72
2023/03/06 00:28:37;;;;;;;4.85;2.15;;;2.20;99.90;;;;;;5040972;28;20025;-72
2023/03/06 00:31:03;;;;;;;5.38;2.33;;;2.20;99.90;;;;;;5041050;28;20036;-72
2023/03/06 00:33:29;;;;;;;2.63;1.40;;;2.20;99.90;;;;;;5042547;28;20100;-71
2023/03/06 00:35:54;;;;;;;3.10;1.45;;;2.20;99.90;;;;;;5040867;28;20044;-70
2023/03/06 00:38:21;;;;;;;3.80;1.60;;;2.20;99.90;;;;;;5042273;28;20065;-70
2023/03/06 00:40:47;;;;;;;3.60;1.52;;;2.20;99.90;;;;;;5040976;28;20049;-70
2023/03/06 00:43:13;;;;;;;2.50;1.20;;;2.30;99.90;;;;;;5041079;28;20491;-71
2023/03/06 00:45:38;;;;;;;2.83;1.50;;;2.30;99.90;;;;;;5042223;28;20052;-70
2023/03/06 00:48:04;;;;;;;2.22;1.40;;;2.30;99.90;;;;;;5042145;28;20038;-73
2023/03/06 00:50:30;;;;;;;2.45;1.08;;;2.40;99.90;;;;;;5041597;28;20068;-70
2023/03/06 00:52:55;;;;;;;2.97;0.98;;;2.40;99.90;;;;;;5040729;28;20037;-71
2023/03/06 00:55:21;;;;;;;2.85;0.88;;;2.40;99.90;;;;;;5040678;28;20065;-70
2023/03/06 00:57:47;;;;;;;2.35;1.00;;;2.40;99.90;;;;;;5040799;28;20423;-72
2023/03/06 01:00:13;;;;;;;1.70;0.93;;;2.50;99.90;;;;;;5040376;28;20045;-70
2023/03/06 01:02:39;;;;;;;2.63;1.30;;;2.40;99.90;;;;;;5039750;28;20034;-73
2023/03/06 01:05:06;;;;;;;6.45;1.35;;;2.50;99.90;;;;;;5040291;28;20060;-72
2023/03/06 01:07:35;;;;;;;3.28;1.50;;;2.50;99.90;;;;;;5041693;28;20085;-70
2023/03/06 01:10:01;;;;;;;3.88;1.27;;;2.50;99.90;;;;;;5041201;28;20068;-71
2023/03/06 01:12:26;;;;;;;3.42;1.45;;;2.50;99.90;;;;;;5039720;28;20414;-71
2023/03/06 01:14:52;;;;;;;2.83;1.35;;;2.50;99.90;;;;;;5041710;28;20069;-69
2023/03/06 01:17:17;;;;;;;3.55;1.77;;;2.50;99.90;;;;;;5041121;28;20033;-71
2023/03/06 01:19:43;;;;;;;4.65;1.80;;;2.50;99.90;;;;;;5040254;28;20036;-73
2023/03/06 01:22:09;;;;;;;4.35;1.73;;;2.50;99.90;;;;;;5040119;28;20135;-72
2023/03/06 01:24:34;;;;;;;3.85;2.13;;;2.50;99.90;;;;;;5041589;28;20039;-72
2023/03/06 01:27:00;;;;;;;5.25;1.90;;;2.40;99.90;;;;;;5040158;28;20049;-71
2023/03/06 01:29:25;;;;;;;4.93;2.17;;;2.40;99.90;;;;;;5040215;28;20033;-72
2023/03/06 01:31:51;;;;;;;5.35;2.03;;;2.40;99.90;;;;;;5039356;28;20573;-70
2023/03/06 01:34:17;;;;;;;5.82;1.80;;;2.40;99.90;;;;;;5040329;28;20033;-69
2023/03/06 01:36:43;;;;;;;4.78;1.55;;;2.40;99.90;;;;;;5040588;28;20036;-70
2023/03/06 01:39:09;;;;;;;4.65;1.85;;;2.40;99.90;;;;;;5038358;28;20978;-71
2023/03/06 01:41:34;;;;;;;2.92;1.55;;;2.40;99.90;;;;;;5038341;28;20033;-70
2023/03/06 01:44:00;;;;;;;4.38;2.08;;;2.40;99.90;;;;;;5040269;28;20037;-70
2023/03/06 01:46:31;;;;;;;5.72;2.10;;;2.40;99.90;;;;;;5040264;28;20028;-71
2023/03/06 01:49:03;;;;;;;4.47;1.88;;;2.30;99.90;;;;;;5040056;28;20087;-69
2023/03/06 01:51:33;;;;;;;5.18;2.50;;;2.30;99.90;;;;;;5039691;28;20026;-71
2023/03/06 01:54:02;;;;;;;6.35;2.35;;;2.30;99.90;;;;;;5038935;28;20180;-71
2023/03/06 01:56:28;;;;;;;4.93;1.85;;;2.30;99.90;;;;;;5038343;28;20029;-73
2023/03/06 01:58:54;;;;;;;6.28;2.28;;;2.30;99.90;;;;;;5040179;28;20535;-70
2023/03/06 02:01:20;;;;;;;6.07;2.38;;;2.20;99.90;;;;;;5038351;28;20083;-72
2023/03/06 02:03:48;;;;;;;5.32;2.17;;;2.20;99.90;;;;;;5038923;28;20037;-71
2023/03/06 02:06:20;;;;;;;3.50;1.50;;;2.20;99.90;;;;;;5038437;28;20033;-71
2023/03/06 02:08:50;;;;;;;4.32;1.67;;;2.20;99.90;;;;;;5037979;28;20041;-71
2023/03/06 02:11:19;;;;;;;5.32;2.00;;;2.20;99.90;;;;;;5038436;28;20026;-72
2023/03/06 02:13:46;;;;;;;4.10;1.45;;;2.20;99.90;;;;;;5040015;28;20029;-71
2023/03/06 02:16:13;;;;;;;4.93;1.70;;;2.20;99.90;;;;;;5039661;28;20381;-71
2023/03/06 02:18:41;;;;;;;5.65;1.63;;;2.20;99.90;;;;;;5039965;28;20057;-72
2023/03/06 02:21:10;;;;;;;6.70;1.73;;;2.20;99.90;;;;;;5039944;28;20042;-71
2023/03/06 02:23:59;;;;;;;4.38;1.80;;;2.20;99.90;;;;;;5043652;28;20029;-70
2023/03/06 02:26:27;;;;;;;7.18;1.45;;;2.10;99.90;;;;;;5043660;28;20045;-71
2023/03/06 02:28:52;;;;;;;5.75;1.40;;;2.20;99.90;;;;;;5043543;28;20120;-71
2023/03/06 02:31:23;;;;;;;3.30;1.50;;;2.20;99.90;;;;;;5044046;28;20033;-71
2023/03/06 02:34:07;;;;;;;5.72;1.88;;;2.20;99.90;;;;;;5043477;28;20029;-72
2023/03/06 02:36:39;;;;;;;3.35;1.55;;;2.20;99.90;;;;;;5043809;28;20033;-72
2023/03/06 02:39:06;;;;;;;4.90;1.92;;;2.20;99.90;;;;;;5043261;28;20121;-73
2023/03/06 02:41:32;;;;;;;3.13;1.40;;;2.20;99.90;;;;;;5040974;28;20505;-72
2023/03/06 02:43:57;;;;;;;6.55;1.55;;;2.10;99.90;;;;;;5043683;28;20033;-72
2023/03/06 02:46:23;;;;;;;3.88;1.45;;;2.20;99.90;;;;;;5043117;28;20095;-72
2023/03/06 02:48:48;;;;;;;5.47;1.48;;;2.20;99.90;;;;;;5042492;28;20529;-71
2023/03/06 02:51:14;;;;;;;3.80;1.60;;;2.10;99.90;;;;;;5043507;28;20033;-74
2023/03/06 02:53:40;;;;;;;2.65;1.35;;;2.20;99.90;;;;;;5042201;28;20026;-70
2023/03/06 02:56:06;;;;;;;5.03;1.63;;;2.10;99.90;;;;;;5042197;28;20083;-70
2023/03/06 02:58:31;;;;;;;4.70;1.60;;;2.10;99.90;;;;;;5043258;28;20088;-72
2023/03/06 03:00:57;;;;;;;3.83;1.92;;;2.10;99.90;;;;;;5041120;28;20037;-70
2023/03/06 03:03:23;;;;;;;6.88;1.60;;;2.10;99.90;;;;;;5043225;28;20029;-71
2023/03/06 03:05:48;;;;;;;6.25;1.70;;;2.10;99.90;;;;;;5043604;28;20120;-71
2023/03/06 03:08:14;;;;;;;7.50;1.60;;;2.10;99.90;;;;;;5043101;28;20061;-71
2023/03/06 03:10:40;;;;;;;6.63;2.10;;;2.00;99.90;;;;;;5042023;28;20546;-73
2023/03/06 03:13:05;;;;;;;3.80;1.52;;;2.00;99.90;;;;;;5041912;28;20022;-72
2023/03/06 03:15:31;;;;;;;3.53;1.63;;;2.00;99.90;;;;;;5041314;28;20056;-73
2023/03/06 03:17:57;;;;;;;3.33;1.58;;;2.00;99.90;;;;;;5042122;28;20021;-71
2023/03/06 03:20:22;;;;;;;4.68;1.92;;;2.00;99.90;;;;;;5041749;28;20060;-70
2023/03/06 03:22:50;;;;;;;5.45;1.80;;;2.00;99.90;;;;;;5042284;28;20404;-74
2023/03/06 03:25:16;;;;;;;6.55;2.22;;;2.00;99.90;;;;;;5041631;28;20024;-71
2023/03/06 03:27:42;;;;;;;5.55;2.00;;;2.00;99.90;;;;;;5042688;28;20091;-71
2023/03/06 03:30:09;;;;;;;5.32;2.10;;;2.00;99.90;;;;;;5041503;28;20033;-73
2023/03/06 03:32:34;;;;;;;7.65;2.38;;;2.00;99.90;;;;;;5042154;28;20045;-71
2023/03/06 03:35:00;;;;;;;6.97;2.45;;;2.00;99.90;;;;;;5042874;28;20032;-71
2023/03/06 03:37:26;;;;;;;4.50;2.20;;;2.00;99.90;;;;;;5043319;28;20025;-72
2023/03/06 03:39:51;;;;;;;6.30;2.20;;;2.00;99.90;;;;;;5039782;28;20103;-72
2023/03/06 03:42:17;;;;;;;7.65;2.38;;;2.00;99.90;;;;;;5041707;28;20088;-71
2023/03/06 03:44:42;;;;;;;9.55;2.70;;;2.00;99.90;;;;;;5041293;28;20025;-70
2023/03/06 03:47:08;;;;;;;6.10;2.08;;;2.00;99.90;;;;;;5041481;28;20047;-73
2023/03/06 03:49:33;;;;;;;9.10;2.35;;;2.00;99.90;;;;;;5041506;28;20032;-70
2023/03/06 03:51:59;;;;;;;7.68;2.63;;;1.90;99.90;;;;;;5041202;28;20128;-71
2023/03/06 03:54:25;;;;;;;5.07;2.40;;;1.90;99.90;;;;;;5042505;28;20028;-72
2023/03/06 03:56:50;;;;;;;7.68;2.42;;;1.90;99.90;;;;;;5042296;28;20038;-71
2023/03/06 03:59:16;;;;;;;5.68;2.60;;;2.00;99.90;;;;;;5042449;28;20029;-70
2023/03/06 04:01:42;;;;;;;4.95;2.50;;;1.90;99.90;;;;;;5040739;28;20030;-71
2023/03/06 04:04:07;;;;;;;9.02;3.20;;;1.90;99.90;;;;;;5040347;28;20418;-71
2023/03/06 04:06:33;;;;;;;11.32;4.15;;;1.90;99.90;;;;;;5039985;28;20113;-72
2023/03/06 04:08:58;;;;;;;9.80;3.40;;;1.90;99.90;;;;;;5040787;28;20055;-72
2023/03/06 04:11:24;;;;;;;8.98;3.15;;;1.90;99.90;;;;;;5040457;28;20034;-70
2023/03/06 04:13:50;;;;;;;8.63;3.70;;;1.90;99.90;;;;;;5039812;28;21073;-72
2023/03/06 04:16:15;;;;;;;6.30;2.95;;;1.90;99.90;;;;;;5040914;28;20108;-70
2023/03/06 04:18:41;;;;;;;12.43;2.80;;;1.90;99.90;;;;;;5039576;28;20056;-71
2023/03/06 04:21:07;;;;;;;20.65;8.27;;;1.90;99.90;;;;;;5040602;28;20043;-70
2023/03/06 04:23:32;;;;;;;11.48;5.03;;;1.90;99.90;;;;;;5041868;28;20108;-71
2023/03/06 04:25:58;;;;;;;9.10;3.33;;;1.90;99.90;;;;;;5041691;28;20025;-71
2023/03/06 04:28:24;;;;;;;12.57;4.30;;;1.90;99.90;;;;;;5040501;28;20045;-70
2023/03/06 04:30:50;;;;;;;10.75;3.60;;;1.90;99.90;;;;;;5040279;28;20029;-70
2023/03/06 04:33:16;;;;;;;6.57;3.20;;;1.90;99.90;;;;;;5041775;28;20030;-72
2023/03/06 04:35:41;;;;;;;6.93;3.17;;;1.90;99.90;;;;;;5040673;28;20079;-72
2023/03/06 04:38:08;;;;;;;8.98;3.85;;;1.90;99.90;;;;;;5041524;28;20033;-71
2023/03/06 04:40:34;;;;;;;12.98;4.05;;;1.90;99.90;;;;;;5041388;28;20042;-70
2023/03/06 04:43:01;;;;;;;10.85;3.40;;;1.90;99.90;;;;;;5041395;28;20451;-71
2023/03/06 04:45:28;;;;;;;10.82;3.05;;;1.90;99.90;;;;;;5039701;28;20367;-70
2023/03/06 04:47:55;;;;;;;9.40;3.10;;;1.90;99.90;;;;;;5038873;28;20159;-74
2023/03/06 04:50:21;;;;;;;8.27;3.15;;;1.80;99.90;;;;;;5041434;28;20040;-71
2023/03/06 04:52:47;;;;;;;7.28;2.78;;;1.80;99.90;;;;;;5041513;28;20029;-70
2023/03/06 04:55:15;;;;;;;7.97;3.50;;;1.90;99.90;;;;;;5040201;28;20018;-70
2023/03/06 04:57:42;;;;;;;9.30;3.22;;;1.80;99.90;;;;;;5039796;28;20021;-72
2023/03/06 05:00:17;;;;;;;10.52;3.28;;;1.80;99.90;;;;;;5039550;28;20018;-71
2023/03/06 05:02:42;;;;;;;;;;;1.80;99.90;;;;;;5039928;28;20033;-70
2023/03/06 05:05:09;;;;;;;10.23;2.95;;;1.80;99.90;;;;;;5040865;28;19913;-75
2023/03/06 05:07:35;;;;;;;6.95;3.20;;;1.70;99.90;;;;;;5040908;28;20061;-71
2023/03/06 05:10:00;;;;;;;7.45;3.60;;;1.70;99.90;;;;;;5040122;28;20052;-73
2023/03/06 05:12:26;;;;;;;10.40;3.20;;;1.70;99.90;;;;;;5039511;28;20040;-71
2023/03/06 05:14:51;;;;;;;8.90;3.30;;;1.70;99.90;;;;;;5040585;28;20033;-71
2023/03/06 05:17:17;;;;;;;8.60;3.58;;;1.70;99.90;;;;;;5040172;28;20017;-70
2023/03/06 05:19:42;;;;;;;7.25;3.22;;;1.70;99.90;;;;;;5040201;28;20061;-72
2023/03/06 05:22:08;;;;;;;9.57;3.67;;;1.70;99.90;;;;;;5039354;28;20040;-72
2023/03/06 05:24:34;;;;;;;11.15;4.00;;;1.70;99.90;;;;;;5039419;28;20036;-71
2023/03/06 05:26:59;;;;;;;11.35;3.75;;;1.70;99.90;;;;;;5040260;28;20057;-73
2023/03/06 05:29:25;;;;;;;14.30;3.50;;;1.70;99.90;;;;;;5039259;28;20034;-71
2023/03/06 05:31:50;;;;;;;10.68;3.83;;;1.70;99.90;;;;;;5039348;28;20033;-71
2023/03/06 05:34:16;;;;;;;10.95;4.75;;;1.60;99.90;;;;;;5039402;28;20035;-70
2023/03/06 05:36:42;;;;;;;12.32;4.13;;;1.60;99.90;;;;;;5039821;28;20085;-72
2023/03/06 05:39:08;;;;;;;9.80;4.13;;;1.60;99.90;;;;;;5040054;28;20141;-71
2023/03/06 05:41:34;;;;;;;12.50;4.32;;;1.60;99.90;;;;;;5038936;28;20128;-71
2023/03/06 05:44:00;;;;;;;9.95;4.05;;;1.60;99.90;;;;;;5040342;28;20984;-70
2023/03/06 05:46:25;;;;;;;32.60;12.80;;;1.60;99.90;;;;;;5038607;28;20026;-73
2023/03/06 05:48:54;;;;;;;16.08;6.57;;;1.70;99.90;;;;;;5040556;28;20056;-72
2023/03/06 05:51:20;;;;;;;14.38;4.80;;;1.70;99.90;;;;;;5035314;28;20116;-71
2023/03/06 05:53:45;;;;;;;10.98;4.85;;;1.70;99.90;;;;;;5041266;28;20111;-70
2023/03/06 05:56:11;;;;;;;17.85;5.22;;;1.70;99.90;;;;;;5039166;28;20071;-71
2023/03/06 05:58:37;;;;;;;12.63;5.15;;;1.70;99.90;;;;;;5039601;28;20033;-72
2023/03/06 06:01:14;;;;;;;15.95;6.10;;;1.60;99.90;;;;;;5041061;28;20068;-72
2023/03/06 06:03:40;;;;;;;19.55;6.68;;;1.60;99.90;;;;;;5039703;28;20034;-72
2023/03/06 06:06:08;;;;;;;16.85;6.35;;;1.60;99.90;;;;;;5040651;28;20024;-72
2023/03/06 06:08:34;;;;;;;16.77;6.97;;;1.60;99.90;;;;;;5040900;28;20045;-72
2023/03/06 06:10:59;;;;;;;17.30;6.57;;;1.60;99.90;;;;;;5041040;28;20033;-71
2023/03/06 06:13:25;;;;;;;18.95;6.97;;;1.60;99.90;;;;;;5039802;28;20033;-72
2023/03/06 06:15:51;;;;;;;15.13;6.63;;;1.50;99.90;;;;;;5039785;28;20032;-72
2023/03/06 06:18:17;;;;;;;16.70;6.93;;;1.50;99.90;;;;;;5040017;28;20071;-72
2023/03/06 06:20:43;;;;;;;19.60;7.05;;;1.50;99.90;;;;;;5039528;28;20068;-71
2023/03/06 06:23:11;;;;;;;16.40;6.93;;;1.50;99.90;;;;;;5039538;28;20782;-70
2023/03/06 06:25:37;;;;;;;25.48;9.10;;;1.50;99.90;;;;;;5040745;28;20086;-74
2023/03/06 06:28:03;;;;;;;22.63;8.20;;;1.50;99.90;;;;;;5040524;28;20045;-71
2023/03/06 06:30:29;;;;;;;20.80;7.53;;;1.50;99.90;;;;;;5040838;28;20024;-73
2023/03/06 06:32:55;;;;;;;24.35;8.27;;;1.50;99.90;;;;;;5041028;28;20026;-70
2023/03/06 06:35:21;;;;;;;21.90;7.63;;;1.50;99.90;;;;;;5040856;28;20092;-70
2023/03/06 06:37:47;;;;;;;22.42;7.82;;;1.40;99.90;;;;;;5041145;28;20104;-71
2023/03/06 06:40:13;;;;;;;22.15;8.02;;;1.40;99.90;;;;;;5040703;28;20100;-70
2023/03/06 06:42:38;;;;;;;24.90;8.20;;;1.40;99.90;;;;;;5035823;28;20057;-73
2023/03/06 06:45:04;;;;;;;24.75;8.80;;;1.40;99.90;;;;;;5036243;28;20501;-70
2023/03/06 06:47:31;;;;;;;20.55;7.32;;;1.40;99.90;;;;;;5040367;28;20032;-71
2023/03/06 06:49:57;;;;;;;31.77;9.52;;;1.40;99.90;;;;;;5040639;28;20498;-71
2023/03/06 06:52:23;;;;;;;28.10;8.02;;;1.40;99.90;;;;;;5038653;28;20022;-71
2023/03/06 06:54:49;;;;;;;38.30;12.68;;;1.60;99.90;;;;;;5037955;28;20037;-72
2023/03/06 06:57:15;;;;;;;28.85;10.02;;;1.50;99.90;;;;;;5035976;28;20024;-72
2023/03/06 06:59:41;;;;;;;23.83;8.20;;;1.50;99.90;;;;;;5035340;28;20133;-71
2023/03/06 07:02:09;;;;;;;24.40;8.50;;;1.50;99.90;;;;;;5052993;28;20478;-71
2023/03/06 07:04:34;;;;;;;19.08;7.68;;;1.50;99.90;;;;;;5036635;28;20466;-70
2023/03/06 07:07:00;;;;;;;29.63;10.35;;;1.40;99.90;;;;;;5039910;28;20104;-73
2023/03/06 07:09:29;;;;;;;24.67;9.82;;;1.50;99.90;;;;;;5058419;28;20030;-71
2023/03/06 07:11:54;;;;;;;24.73;7.75;;;1.50;99.90;;;;;;5043332;28;20093;-72
2023/03/06 07:14:20;;;;;;;22.88;7.93;;;1.50;99.90;;;;;;5043082;28;20040;-70
2023/03/06 07:16:45;;;;;;;19.25;8.10;;;1.60;99.90;;;;;;5041934;28;20022;-71
2023/03/06 07:19:11;;;;;;;20.70;8.85;;;1.60;99.90;;;;;;5042517;28;20815;-70
2023/03/06 07:21:37;;;;;;;22.17;8.13;;;1.70;99.90;;;;;;5042418;28;20048;-70
2023/03/06 07:24:03;;;;;;;24.00;8.18;;;1.70;99.90;;;;;;5042159;28;20072;-70
2023/03/06 07:26:29;;;;;;;20.55;8.00;;;1.70;99.90;;;;;;5043449;28;20042;-70
2023/03/06 07:28:55;;;;;;;17.65;7.32;;;1.70;99.90;;;;;;5043537;28;20055;-70
2023/03/06 07:31:23;;;;;;;24.48;8.93;;;1.80;99.90;;;;;;5041390;28;20037;-73
2023/03/06 07:33:50;;;;;;;21.83;8.65;;;1.70;99.90;;;;;;5041785;28;20026;-72
2023/03/06 07:36:16;;;;;;;21.45;8.00;;;1.60;99.90;;;;;;5041318;28;20505;-70
2023/03/06 07:38:42;;;;;;;20.23;8.23;;;1.60;99.90;;;;;;5041736;28;20036;-72
2023/03/06 07:41:12;;;;;;;25.65;8.02;;;1.60;99.90;;;;;;5041256;28;20113;-71
2023/03/06 07:43:42;;;;;;;21.05;7.60;;;1.60;99.90;;;;;;5043554;28;20036;-70
2023/03/06 07:46:08;;;;;;;21.75;7.65;;;1.60;99.90;;;;;;5042980;28;20033;-68
2023/03/06 07:48:35;;;;;;;22.10;8.23;;;1.70;99.90;;;;;;5042998;28;20025;-71
2023/03/06 07:51:04;;;;;;;20.58;7.53;;;1.80;99.90;;;;;;5043278;28;20034;-70
2023/03/06 07:53:30;;;;;;;18.38;7.72;;;1.90;99.90;;;;;;5040595;28;20045;-70
2023/03/06 07:55:56;;;;;;;18.38;7.45;;;2.00;99.90;;;;;;5043082;28;20056;-70
2023/03/06 07:58:22;;;;;;;17.15;6.93;;;2.20;99.90;;;;;;5042837;28;20026;-72
2023/03/06 08:00:48;;;;;;;13.00;5.40;;;2.50;99.90;;;;;;5043097;28;20040;-70
2023/03/06 08:03:14;;;;;;;16.45;6.40;;;2.70;99.90;;;;;;5040874;28;20383;-69
2023/03/06 08:05:39;;;;;;;12.48;5.93;;;2.80;99.90;;;;;;5043004;28;20435;-68
2023/03/06 08:08:05;;;;;;;15.20;6.25;;;2.70;99.90;;;;;;5041407;28;20056;-69
2023/03/06 08:10:31;;;;;;;21.45;7.10;;;2.70;99.90;;;;;;5042564;28;20021;-69
2023/03/06 08:12:57;;;;;;;13.40;6.43;;;2.80;99.90;;;;;;5042853;28;20097;-70
2023/03/06 08:15:22;;;;;;;14.55;6.78;;;2.80;99.90;;;;;;5040791;28;20101;-71
2023/03/06 08:17:49;;;;;;;18.20;6.22;;;2.80;99.90;;;;;;5040305;28;20045;-70
2023/03/06 08:20:15;;;;;;;17.63;6.47;;;2.80;99.90;;;;;;5041726;28;20018;-70
2023/03/06 08:22:41;;;;;;;24.30;6.35;;;2.80;99.90;;;;;;5041897;28;20041;-70
2023/03/06 08:25:07;;;;;;;12.35;6.07;;;3.00;99.90;;;;;;5041692;28;20029;-69
2023/03/06 08:27:33;;;;;;;16.15;5.97;;;3.10;99.90;;;;;;5042731;28;20053;-68
2023/03/06 08:29:59;;;;;;;13.10;5.53;;;3.30;99.90;;;;;;5042465;28;20031;-70
2023/03/06 08:32:25;;;;;;;13.25;6.22;;;3.60;99.90;;;;;;5041303;28;20707;-69
2023/03/06 08:34:51;;;;;;;12.80;5.90;;;3.80;99.90;;;;;;5041773;28;20035;-70
2023/03/06 08:37:17;;;;;;;13.98;5.65;;;3.80;99.90;;;;;;5041329;28;20097;-70
2023/03/06 08:39:42;;;;;;;10.57;5.65;;;3.80;99.90;;;;;;5041847;28;20033;-70
2023/03/06 08:42:09;;;;;;;12.85;5.97;;;3.70;99.90;;;;;;5042476;28;20382;-72
2023/03/06 08:44:34;;;;;;;10.27;4.97;;;3.70;99.90;;;;;;5040700;28;20029;-70
2023/03/06 08:47:00;;;;;;;15.93;6.15;;;3.60;99.90;;;;;;5042354;28;21338;-69
2023/03/06 08:49:26;;;;;;;17.35;6.45;;;3.70;99.90;;;;;;5040934;28;20021;-70
2023/03/06 08:51:51;;;;;;;12.60;5.78;;;3.90;99.90;;;;;;5042126;28;20116;-71
2023/03/06 08:54:17;;;;;;;9.93;5.10;;;4.10;99.90;;;;;;5040536;28;20446;-70
2023/03/06 08:56:43;;;;;;;14.32;5.70;;;4.60;99.90;;;;;;5042010;28;20048;-70
2023/03/06 08:59:10;;;;;;;10.93;4.57;;;4.90;99.90;;;;;;5041924;28;20513;-70
2023/03/06 09:01:36;;;;;;;9.20;4.53;;;5.30;99.90;;;;;;5041257;28;20037;-69
2023/03/06 09:04:10;;;;;;;9.05;4.30;;;5.40;99.90;;;;;;5040222;28;20064;-69
2023/03/06 09:06:39;;;;;;;8.45;3.97;;;5.50;99.90;;;;;;5041595;28;20029;-70
2023/03/06 09:09:05;;;;;;;10.27;4.40;;;5.70;99.90;;;;;;5040107;28;20495;-69
2023/03/06 09:11:31;;;;;;;10.68;4.53;;;5.90;99.90;;;;;;5041563;28;20025;-70
2023/03/06 09:13:58;;;;;;;10.57;4.85;;;5.90;99.90;;;;;;5042221;28;20079;-69
2023/03/06 09:16:24;;;;;;;10.20;4.50;;;6.10;99.90;;;;;;5041982;28;20091;-71
2023/03/06 09:18:51;;;;;;;9.20;4.53;;;6.00;99.90;;;;;;5041306;28;20463;-70
2023/03/06 09:21:19;;;;;;;11.95;4.50;;;5.90;99.90;;;;;;5042349;28;20041;-72
2023/03/06 09:23:45;;;;;;;9.90;4.78;;;5.80;99.90;;;;;;5040012;28;20364;-73
2023/03/06 09:26:11;;;;;;;10.23;4.20;;;5.70;99.90;;;;;;5040159;28;20021;-69
2023/03/06 09:28:38;;;;;;;7.72;4.35;;;5.60;99.90;;;;;;5041562;28;20077;-72
2023/03/06 09:31:18;;;;;;;13.02;5.05;;;5.40;99.90;;;;;;5035454;28;20029;-72
2023/03/06 09:33:45;;;;;;;9.65;4.82;;;5.20;99.90;;;;;;5040228;28;20037;-73
2023/03/06 09:36:18;;;;;;;9.57;4.70;;;5.10;99.90;;;;;;5037849;28;20034;-70
2023/03/06 09:38:46;;;;;;;10.93;4.90;;;5.20;99.90;;;;;;5041244;28;20018;-71
2023/03/06 09:41:21;;;;;;;8.38;3.55;;;5.20;99.90;;;;;;5037932;28;20041;-71
2023/03/06 09:43:50;;;;;;;9.77;3.15;;;5.10;99.90;;;;;;5039551;28;20021;-71
2023/03/06 09:46:23;;;;;;;9.70;3.72;;;4.90;99.90;;;;;;5037806;28;20797;-72
2023/03/06 09:49:00;;;;;;;9.48;3.80;;;4.90;99.90;;;;;;5040174;28;20049;-72
2023/03/06 09:51:40;;;;;;;8.15;3.60;;;5.00;99.90;;;;;;5042027;28;20030;-73
2023/03/06 09:54:13;;;;;;;7.75;3.17;;;5.40;99.90;;;;;;5041572;28;20029;-71
2023/03/06 09:56:46;;;;;;;6.88;2.85;;;5.80;99.90;;;;;;5041490;28;20030;-70
2023/03/06 09:59:24;;;;;;;7.47;3.00;;;5.90;99.90;;;;;;5041830;28;20553;-73
2023/03/06 10:02:10;;;;;;;8.13;2.70;;;6.00;99.90;;;;;;5041183;28;20032;-70
2023/03/06 10:04:40;;;;;;;6.45;2.50;;;5.90;99.90;;;;;;5039363;28;20033;-72
2023/03/06 10:07:45;;;;;;;16.25;3.05;;;6.00;99.90;;;;;;5039811;28;20026;-73
2023/03/06 10:10:23;;;;;;;9.63;2.95;;;6.30;99.90;;;;;;4997595;28;20118;-71
2023/03/06 10:13:24;;;;;;;10.15;2.80;;;6.80;99.90;;;;;;5034977;28;20056;-71
2023/03/06 10:15:50;;;;;;;7.70;2.70;;;6.80;99.90;;;;;;5041913;28;20061;-71
2023/03/06 10:18:16;;;;;;;7.60;2.47;;;6.70;99.90;;;;;;5040388;28;20029;-74
2023/03/06 10:21:20;;;;;;;6.50;2.60;;;6.40;99.90;;;;;;5039731;28;20052;-70
2023/03/06 10:24:19;;;;;;;5.90;2.70;;;6.30;99.90;;;;;;5027946;28;20075;-72
2023/03/06 10:27:37;;;;;;;6.95;2.92;;;6.80;99.90;;;;;;5040253;28;20132;-71
2023/03/06 10:30:21;;;;;;;6.55;2.97;;;7.50;99.90;;;;;;5017516;28;20048;-73
2023/03/06 10:32:57;;;;;;;8.38;4.07;;;8.10;99.90;;;;;;5039548;28;20029;-72
2023/03/06 10:35:41;;;;;;;11.63;3.30;;;8.30;99.90;;;;;;5040513;28;20084;-72
2023/03/06 10:38:21;;;;;;;7.70;3.72;;;8.10;99.90;;;;;;5037517;28;20064;-73
2023/03/06 10:41:11;;;;;;;9.77;4.25;;;7.90;99.90;;;;;;5037838;28;20045;-73
2023/03/06 10:44:04;;;;;;;8.82;3.70;;;7.70;99.90;;;;;;5043306;28;20030;-73
2023/03/06 10:46:33;;;;;;;12.35;4.32;;;7.60;99.90;;;;;;5043799;28;20045;-72
2023/03/06 10:49:06;;;;;;;8.45;4.03;;;7.50;99.90;;;;;;5043495;28;20040;-72
2023/03/06 10:51:32;;;;;;;10.93;3.55;;;7.70;99.90;;;;;;5043264;28;20056;-74
2023/03/06 10:54:03;;;;;;;11.60;4.38;;;7.70;99.90;;;;;;5044832;28;20021;-70
2023/03/06 10:56:34;;;;;;;8.98;4.18;;;7.90;99.90;;;;;;5044274;28;20080;-72
2023/03/06 10:59:16;;;;;;;10.18;4.13;;;8.10;99.90;;;;;;5043096;28;20569;-74
2023/03/06 11:01:48;;;;;;;8.98;3.80;;;8.30;99.90;;;;;;5043740;28;20041;-71
2023/03/06 11:04:33;;;;;;;12.57;4.22;;;8.30;99.90;;;;;;5042151;28;20123;-75
2023/03/06 11:07:19;;;;;;;9.40;3.55;;;8.60;99.90;;;;;;5040553;28;20101;-70
2023/03/06 11:10:17;;;;;;;7.78;3.50;;;8.70;99.90;;;;;;5043867;28;20048;-69
2023/03/06 11:13:05;;;;;;;11.13;4.30;;;8.50;99.90;;;;;;5042951;28;20040;-70
2023/03/06 11:15:30;;;;;;;8.70;3.80;;;8.40;99.90;;;;;;5042873;28;20029;-71
2023/03/06 11:18:08;;;;;;;9.02;4.07;;;8.60;99.90;;;;;;5043517;28;20042;-69
2023/03/06 11:20:40;;;;;;;6.40;3.25;;;8.60;99.90;;;;;;5042074;28;20037;-72
2023/03/06 11:23:36;;;;;;;7.00;3.45;;;8.90;99.90;;;;;;5041835;28;20537;-71
2023/03/06 11:26:18;;;;;;;9.88;3.45;;;9.20;99.90;;;;;;5057605;28;20041;-72
2023/03/06 11:29:01;;;;;;;8.77;3.70;;;9.20;99.90;;;;;;5043030;28;20040;-71
2023/03/06 11:31:33;;;;;;;8.05;3.53;;;9.30;99.90;;;;;;5043221;28;20036;-69
2023/03/06 11:34:24;;;;;;;4.57;3.03;;;9.50;99.90;;;;;;5042638;28;20102;-72
2023/03/06 11:36:59;;;;;;;6.18;2.95;;;9.60;99.90;;;;;;5042839;28;20093;-74
2023/03/06 11:40:04;;;;;;;6.00;2.45;;;9.90;99.90;;;;;;5041361;28;20391;-74
2023/03/06 11:42:38;;;;;;;6.22;2.00;;;9.80;99.90;;;;;;5042125;28;20490;-73
2023/03/06 11:45:15;;;;;;;5.50;2.50;;;9.80;99.90;;;;;;5043134;28;20057;-70
2023/03/06 11:47:48;;;;;;;9.52;2.95;;;9.80;99.90;;;;;;5043647;28;20045;-72
2023/03/06 11:50:39;;;;;;;6.18;2.58;;;9.60;99.90;;;;;;5042283;28;20045;-71
2023/03/06 11:53:09;;;;;;;12.98;2.80;;;9.50;99.90;;;;;;5042836;28;20029;-70
2023/03/06 11:56:13;;;;;;;7.38;2.70;;;9.30;99.90;;;;;;5040822;28;20025;-71
2023/03/06 11:59:16;;;;;;;8.30;2.25;;;9.20;99.90;;;;;;5042027;28;20025;-72
2023/03/06 12:01:45;;;;;;;5.60;2.50;;;8.90;99.90;;;;;;5039051;28;20576;-71
2023/03/06 12:04:19;;;;;;;6.03;2.17;;;8.60;99.90;;;;;;5043315;28;20490;-70
2023/03/06 12:06:53;;;;;;;8.25;2.42;;;8.30;99.90;;;;;;5041500;28;20049;-71
2023/03/06 12:09:27;;;;;;;6.68;3.35;;;8.10;99.90;;;;;;5040946;28;20057;-71
2023/03/06 12:12:17;;;;;;;9.47;4.20;;;7.90;99.90;;;;;;5043129;28;20041;-72
2023/03/06 12:15:25;;;;;;;3.95;1.50;;;7.80;99.90;;;;;;5041028;28;20041;-68
2023/03/06 12:18:12;;;;;;;6.22;3.63;;;7.50;99.90;;;;;;5050563;28;20037;-72
2023/03/06 12:20:47;;;;;;;13.95;5.15;;;7.50;99.90;;;;;;5041502;28;20601;-70
2023/03/06 12:23:15;;;;;;;11.13;4.80;;;7.70;99.90;;;;;;5043024;28;20026;-69
2023/03/06 12:25:47;;;;;;;9.77;4.90;;;7.90;99.90;;;;;;5042756;28;20032;-71
2023/03/06 12:28:50;;;;;;;9.63;4.00;;;8.00;99.90;;;;;;5042793;28;20111;-74
2023/03/06 12:31:55;;;;;;;8.63;3.35;;;8.10;99.90;;;;;;5040848;28;20053;-70
2023/03/06 12:34:26;;;;;;;;;;;8.70;99.90;;;;;;5042677;28;20036;-69
2023/03/06 12:37:03;;;;;;;5.68;2.83;;;9.50;99.90;;;;;;5036577;28;20381;-70
2023/03/06 12:39:59;;;;;;;9.98;2.70;;;10.30;99.90;;;;;;5039625;28;20021;-71
2023/03/06 12:42:48;;;;;;;4.32;2.17;;;11.00;99.90;;;;;;5040454;28;20131;-69
2023/03/06 12:45:27;;;;;;;8.43;2.08;;;11.40;99.90;;;;;;5041453;28;20026;-69
2023/03/06 12:47:55;;;;;;;9.15;1.90;;;11.90;99.90;;;;;;5042596;28;20057;-70
2023/03/06 12:50:35;;;;;;;9.75;2.22;;;12.20;99.90;;;;;;5040444;28;20045;-70
2023/03/06 12:53:05;;;;;;;7.85;2.97;;;12.20;99.90;;;;;;5041415;28;20029;-72
2023/03/06 12:55:45;;;;;;;11.10;2.58;;;11.80;99.90;;;;;;5040440;28;20026;-71
2023/03/06 12:58:33;;;;;;;4.22;2.10;;;11.00;99.90;;;;;;5037285;28;20021;-70
2023/03/06 13:01:05;;;;;;;4.65;2.00;;;10.70;99.90;;;;;;5041732;28;20048;-70
2023/03/06 13:03:55;;;;;;;5.88;1.80;;;11.00;99.90;;;;;;5042283;28;20124;-71
2023/03/06 13:07:09;;;;;;;6.53;2.10;;;11.60;99.90;;;;;;5041697;28;20483;-72
2023/03/06 13:09:52;;;;;;;4.88;1.70;;;12.40;99.90;;;;;;5031408;28;20371;-71